sensor_id;sensor_type;location;lat;lon;timestamp;pressure;altitude;pressure_sealevel;temperature;humidity
50394;BME280;36308;46.312;25.288;2023-05-22T00:00:06;96124.09;;;12.99;55.25
50394;BME280;36308;46.312;25.288;2023-05-22T00:02:33;96124.66;;;12.96;55.31
50394;BME280;36308;46.312;25.288;2023-05-22T00:05:04;96118.69;;;12.88;55.46
50394;BME280;36308;46.312;25.288;2023-05-22T00:07:31;96121.13;;;12.80;55.53
50394;BME280;36308;46.312;25.288;2023-05-22T00:09:56;96116.53;;;12.70;55.55
50394;BME280;36308;46.312;25.288;2023-05-22T00:12:21;96104.69;;;12.56;55.83
50394;BME280;36308;46.312;25.288;2023-05-22T00:14:47;96113.31;;;12.58;56.18
50394;BME280;36308;46.312;25.288;2023-05-22T00:17:12;96113.28;;;12.52;55.85
50394;BME280;36308;46.312;25.288;2023-05-22T00:19:39;96107.91;;;12.47;56.25
50394;BME280;36308;46.312;25.288;2023-05-22T00:22:05;96121.94;;;12.49;56.28
50394;BME280;36308;46.312;25.288;2023-05-22T00:24:30;96124.09;;;12.47;56.75
50394;BME280;36308;46.312;25.288;2023-05-22T00:26:56;96128.38;;;12.43;57.01
50394;BME280;36308;46.312;25.288;2023-05-22T00:29:22;96121.88;;;12.34;57.06
50394;BME280;36308;46.312;25.288;2023-05-22T00:31:47;96117.56;;;12.23;56.94
50394;BME280;36308;46.312;25.288;2023-05-22T00:34:13;96124.84;;;12.22;57.49
50394;BME280;36308;46.312;25.288;2023-05-22T00:36:38;96128.31;;;12.12;57.68
50394;BME280;36308;46.312;25.288;2023-05-22T00:39:04;96103.72;;;11.93;58.08
50394;BME280;36308;46.312;25.288;2023-05-22T00:41:30;96126.09;;;11.94;58.20
50394;BME280;36308;46.312;25.288;2023-05-22T00:43:59;96121.69;;;11.83;58.28
50394;BME280;36308;46.312;25.288;2023-05-22T00:46:25;96117.09;;;11.73;58.49
50394;BME280;36308;46.312;25.288;2023-05-22T00:48:51;96123.78;;;11.65;58.58
50394;BME280;36308;46.312;25.288;2023-05-22T00:51:18;96123.22;;;11.63;59.21
50394;BME280;36308;46.312;25.288;2023-05-22T00:53:45;96124.81;;;11.59;58.81
50394;BME280;36308;46.312;25.288;2023-05-22T00:56:11;96116.72;;;11.54;59.14
50394;BME280;36308;46.312;25.288;2023-05-22T00:58:39;96113.50;;;11.52;59.04
50394;BME280;36308;46.312;25.288;2023-05-22T01:01:06;96107.56;;;11.55;59.57
50394;BME280;36308;46.312;25.288;2023-05-22T01:03:38;96112.69;;;11.57;59.85
50394;BME280;36308;46.312;25.288;2023-05-22T01:06:10;96105.97;;;11.54;59.64
50394;BME280;36308;46.312;25.288;2023-05-22T01:08:35;96112.94;;;11.55;59.34
50394;BME280;36308;46.312;25.288;2023-05-22T01:11:26;96100.78;;;11.47;59.53
50394;BME280;36308;46.312;25.288;2023-05-22T01:16:51;96130.75;;;11.56;58.68
50394;BME280;36308;46.312;25.288;2023-05-22T01:27:53;96116.72;;;11.54;59.12
50394;BME280;36308;46.312;25.288;2023-05-22T01:32:46;96121.56;;;11.52;58.75
50394;BME280;36308;46.312;25.288;2023-05-22T01:35:14;96120.72;;;11.51;58.43
50394;BME280;36308;46.312;25.288;2023-05-22T01:37:42;96120.19;;;11.49;59.22
50394;BME280;36308;46.312;25.288;2023-05-22T01:40:09;96116.13;;;11.47;58.90
50394;BME280;36308;46.312;25.288;2023-05-22T01:42:36;96116.13;;;11.47;58.82
50394;BME280;36308;46.312;25.288;2023-05-22T01:45:03;96115.03;;;11.43;59.37
50394;BME280;36308;46.312;25.288;2023-05-22T01:47:29;96116.13;;;11.42;59.56
50394;BME280;36308;46.312;25.288;2023-05-22T01:49:57;96107.75;;;11.38;58.90
50394;BME280;36308;46.312;25.288;2023-05-22T01:52:54;96117.72;;;11.38;58.82
50394;BME280;36308;46.312;25.288;2023-05-22T01:56:17;96124.16;;;11.37;59.59
50394;BME280;36308;46.312;25.288;2023-05-22T01:58:48;96121.47;;;11.37;59.13
50394;BME280;36308;46.312;25.288;2023-05-22T02:01:19;96120.34;;;11.32;59.17
50394;BME280;36308;46.312;25.288;2023-05-22T02:03:47;96116.31;;;11.30;59.53
50394;BME280;36308;46.312;25.288;2023-05-22T02:06:17;96126.53;;;11.28;59.14
50394;BME280;36308;46.312;25.288;2023-05-22T02:08:43;96127.31;;;11.23;59.51
50394;BME280;36308;46.312;25.288;2023-05-22T02:11:10;96121.63;;;11.20;59.27
50394;BME280;36308;46.312;25.288;2023-05-22T02:13:38;96114.56;;;11.08;58.98
50394;BME280;36308;46.312;25.288;2023-05-22T02:16:05;96128.84;;;11.14;59.24
50394;BME280;36308;46.312;25.288;2023-05-22T02:18:31;96118.63;;;11.11;59.27
50394;BME280;36308;46.312;25.288;2023-05-22T02:20:57;96121.25;;;11.06;58.58
50394;BME280;36308;46.312;25.288;2023-05-22T02:23:23;96107.78;;;11.01;58.66
50394;BME280;36308;46.312;25.288;2023-05-22T02:25:49;96112.06;;;10.97;58.91
50394;BME280;36308;46.312;25.288;2023-05-22T02:28:15;96109.91;;;10.94;59.14
50394;BME280;36308;46.312;25.288;2023-05-22T02:30:40;96116.84;;;10.89;58.96
50394;BME280;36308;46.312;25.288;2023-05-22T02:33:06;96109.53;;;10.85;59.28
50394;BME280;36308;46.312;25.288;2023-05-22T02:35:34;96124.31;;;10.82;58.67
50394;BME280;36308;46.312;25.288;2023-05-22T02:38:00;96109.19;;;10.71;58.94
50394;BME280;36308;46.312;25.288;2023-05-22T02:40:26;96119.41;;;10.74;58.70
50394;BME280;36308;46.312;25.288;2023-05-22T02:42:51;96120.75;;;10.71;59.21
50394;BME280;36308;46.312;25.288;2023-05-22T02:45:18;96120.44;;;10.68;59.06
50394;BME280;36308;46.312;25.288;2023-05-22T02:47:43;96110.16;;;10.60;58.74
50394;BME280;36308;46.312;25.288;2023-05-22T02:50:09;96110.13;;;10.55;59.15
50394;BME280;36308;46.312;25.288;2023-05-22T02:52:34;96111.16;;;10.54;59.27
50394;BME280;36308;46.312;25.288;2023-05-22T02:55:02;96118.66;;;10.51;58.90
50394;BME280;36308;46.312;25.288;2023-05-22T02:57:28;96114.88;;;10.47;58.71
50394;BME280;36308;46.312;25.288;2023-05-22T02:59:54;96108.13;;;10.45;58.98
50394;BME280;36308;46.312;25.288;2023-05-22T03:02:19;96106.78;;;10.42;59.76
50394;BME280;36308;46.312;25.288;2023-05-22T03:04:45;96111.59;;;10.40;59.00
50394;BME280;36308;46.312;25.288;2023-05-22T03:07:10;96113.16;;;10.36;59.09
50394;BME280;36308;46.312;25.288;2023-05-22T03:09:36;96093.66;;;10.24;59.24
50394;BME280;36308;46.312;25.288;2023-05-22T03:12:02;96110.91;;;10.28;59.03
50394;BME280;36308;46.312;25.288;2023-05-22T03:14:29;96118.41;;;10.26;59.38
50394;BME280;36308;46.312;25.288;2023-05-22T03:16:55;96115.16;;;10.24;59.38
50394;BME280;36308;46.312;25.288;2023-05-22T03:19:21;96109.16;;;10.17;60.13
50394;BME280;36308;46.312;25.288;2023-05-22T03:21:46;96117.78;;;10.19;59.97
50394;BME280;36308;46.312;25.288;2023-05-22T03:24:14;96121.03;;;10.21;59.79
50394;BME280;36308;46.312;25.288;2023-05-22T03:26:39;96111.91;;;10.22;60.00
50394;BME280;36308;46.312;25.288;2023-05-22T03:29:06;96097.28;;;10.12;60.46
50394;BME280;36308;46.312;25.288;2023-05-22T03:31:32;96099.97;;;10.12;60.43
50394;BME280;36308;46.312;25.288;2023-05-22T03:33:58;96108.66;;;10.20;60.56
50394;BME280;36308;46.312;25.288;2023-05-22T03:36:24;96119.72;;;10.23;60.31
50394;BME280;36308;46.312;25.288;2023-05-22T03:38:50;96102.97;;;10.16;60.70
50394;BME280;36308;46.312;25.288;2023-05-22T03:41:16;96099.72;;;10.14;60.54
50394;BME280;36308;46.312;25.288;2023-05-22T03:43:41;96109.78;;;10.24;60.87
50394;BME280;36308;46.312;25.288;2023-05-22T03:46:07;96121.66;;;10.28;60.71
50394;BME280;36308;46.312;25.288;2023-05-22T03:48:34;96122.25;;;10.30;60.55
50394;BME280;36308;46.312;25.288;2023-05-22T03:51:00;96122.78;;;10.32;60.57
50394;BME280;36308;46.312;25.288;2023-05-22T03:53:26;96107.72;;;10.31;61.01
50394;BME280;36308;46.312;25.288;2023-05-22T03:55:51;96113.16;;;10.36;60.64
50394;BME280;36308;46.312;25.288;2023-05-22T03:58:17;96120.69;;;10.39;60.57
50394;BME280;36308;46.312;25.288;2023-05-22T04:00:43;96115.59;;;10.38;61.03
50394;BME280;36308;46.312;25.288;2023-05-22T04:03:10;96122.91;;;10.42;60.73
50394;BME280;36308;46.312;25.288;2023-05-22T04:05:38;96114.53;;;10.39;60.34
50394;BME280;36308;46.312;25.288;2023-05-22T04:08:03;96106.16;;;10.35;60.48
50394;BME280;36308;46.312;25.288;2023-05-22T04:10:29;96113.25;;;10.46;60.99
50394;BME280;36308;46.312;25.288;2023-05-22T04:12:55;96111.69;;;10.50;60.54
50394;BME280;36308;46.312;25.288;2023-05-22T04:15:20;96108.72;;;10.52;60.49
50394;BME280;36308;46.312;25.288;2023-05-22T04:17:46;96101.97;;;10.49;61.14
50394;BME280;36308;46.312;25.288;2023-05-22T04:20:14;96112.84;;;10.60;60.79
50394;BME280;36308;46.312;25.288;2023-05-22T04:22:39;96110.69;;;10.62;60.70
50394;BME280;36308;46.312;25.288;2023-05-22T04:25:06;96110.69;;;10.62;60.54
50394;BME280;36308;46.312;25.288;2023-05-22T04:27:31;96108.63;;;10.69;60.56
50394;BME280;36308;46.312;25.288;2023-05-22T04:29:59;96108.09;;;10.72;61.06
50394;BME280;36308;46.312;25.288;2023-05-22T04:32:26;96100.88;;;10.78;60.90
50394;BME280;36308;46.312;25.288;2023-05-22T04:34:53;96105.75;;;10.81;60.91
50394;BME280;36308;46.312;25.288;2023-05-22T04:37:22;96115.75;;;10.85;60.98
50394;BME280;36308;46.312;25.288;2023-05-22T04:39:50;96108.25;;;10.87;60.99
50394;BME280;36308;46.312;25.288;2023-05-22T04:42:17;96106.38;;;10.93;61.01
50394;BME280;36308;46.312;25.288;2023-05-22T04:44:43;96106.69;;;10.97;61.26
50394;BME280;36308;46.312;25.288;2023-05-22T04:47:09;96101.31;;;11.02;61.05
50394;BME280;36308;46.312;25.288;2023-05-22T04:49:36;96097.59;;;11.08;60.82
50394;BME280;36308;46.312;25.288;2023-05-22T04:52:03;96109.75;;;11.16;60.49
50394;BME280;36308;46.312;25.288;2023-05-22T04:54:31;96096.59;;;11.19;60.54
50394;BME280;36308;46.312;25.288;2023-05-22T04:56:57;96102.84;;;11.30;59.79
50394;BME280;36308;46.312;25.288;2023-05-22T04:59:22;96103.72;;;11.36;59.62
50394;BME280;36308;46.312;25.288;2023-05-22T05:01:51;96087.03;;;11.39;59.71
50394;BME280;36308;46.312;25.288;2023-05-22T05:04:16;96091.41;;;11.50;58.91
50394;BME280;36308;46.312;25.288;2023-05-22T05:06:42;96089.81;;;11.54;58.75
50394;BME280;36308;46.312;25.288;2023-05-22T05:09:08;96100.09;;;11.67;58.51
50394;BME280;36308;46.312;25.288;2023-05-22T05:11:34;96097.97;;;11.75;58.26
50394;BME280;36308;46.312;25.288;2023-05-22T05:14:00;96094.22;;;11.81;58.15
50394;BME280;36308;46.312;25.288;2023-05-22T05:16:26;96099.94;;;11.95;58.08
50394;BME280;36308;46.312;25.288;2023-05-22T05:18:51;96094.31;;;12.01;58.22
50394;BME280;36308;46.312;25.288;2023-05-22T05:21:18;96099.72;;;12.11;57.62
50394;BME280;36308;46.312;25.288;2023-05-22T05:23:45;96098.41;;;12.19;57.27
50394;BME280;36308;46.312;25.288;2023-05-22T05:26:11;96098.69;;;12.28;57.35
50394;BME280;36308;46.312;25.288;2023-05-22T05:28:36;96099.25;;;12.35;56.97
50394;BME280;36308;46.312;25.288;2023-05-22T05:31:02;96103.03;;;12.44;56.79
50394;BME280;36308;46.312;25.288;2023-05-22T05:33:28;96080.94;;;12.47;56.62
50394;BME280;36308;46.312;25.288;2023-05-22T05:35:53;96097.94;;;12.63;56.47
50394;BME280;36308;46.312;25.288;2023-05-22T05:38:19;96082.28;;;12.65;56.07
50394;BME280;36308;46.312;25.288;2023-05-22T05:40:44;96093.63;;;12.83;55.80
50394;BME280;36308;46.312;25.288;2023-05-22T05:43:11;96078.25;;;12.83;55.51
50394;BME280;36308;46.312;25.288;2023-05-22T05:45:39;96097.13;;;13.04;55.21
50394;BME280;36308;46.312;25.288;2023-05-22T05:48:05;96072.03;;;13.03;55.19
50394;BME280;36308;46.312;25.288;2023-05-22T05:50:31;96091.44;;;13.21;54.73
50394;BME280;36308;46.312;25.288;2023-05-22T05:52:56;96075.75;;;13.23;54.66
50394;BME280;36308;46.312;25.288;2023-05-22T05:55:22;96090.84;;;13.44;54.43
50394;BME280;36308;46.312;25.288;2023-05-22T05:57:48;96085.16;;;13.56;54.18
50394;BME280;36308;46.312;25.288;2023-05-22T06:00:13;96087.25;;;13.69;53.97
50394;BME280;36308;46.312;25.288;2023-05-22T06:02:39;96087.75;;;13.82;53.90
50394;BME280;36308;46.312;25.288;2023-05-22T06:05:05;96080.13;;;13.94;53.78
50394;BME280;36308;46.312;25.288;2023-05-22T06:07:31;96076.84;;;14.02;53.60
50394;BME280;36308;46.312;25.288;2023-05-22T06:09:59;96075.69;;;14.19;53.40
50394;BME280;36308;46.312;25.288;2023-05-22T06:12:25;96081.03;;;14.29;53.29
50394;BME280;36308;46.312;25.288;2023-05-22T06:14:51;96084.19;;;14.41;53.33
50394;BME280;36308;46.312;25.288;2023-05-22T06:17:16;96076.03;;;14.51;53.19
50394;BME280;36308;46.312;25.288;2023-05-22T06:19:42;96074.88;;;14.63;52.97
50394;BME280;36308;46.312;25.288;2023-05-22T06:22:07;96072.94;;;14.68;52.80
50394;BME280;36308;46.312;25.288;2023-05-22T06:24:33;96083.03;;;14.92;52.51
50394;BME280;36308;46.312;25.288;2023-05-22T06:26:58;96081.00;;;15.08;52.85
50394;BME280;36308;46.312;25.288;2023-05-22T06:29:25;96080.34;;;15.21;52.51
50394;BME280;36308;46.312;25.288;2023-05-22T06:31:51;96069.63;;;15.35;51.96
50394;BME280;36308;46.312;25.288;2023-05-22T06:34:16;96077.28;;;15.52;51.76
50394;BME280;36308;46.312;25.288;2023-05-22T06:36:42;96079.34;;;15.65;51.87
50394;BME280;36308;46.312;25.288;2023-05-22T06:39:07;96076.47;;;15.81;51.61
50394;BME280;36308;46.312;25.288;2023-05-22T06:41:33;96062.50;;;15.92;50.94
50394;BME280;36308;46.312;25.288;2023-05-22T06:44:00;96067.50;;;16.04;50.61
50394;BME280;36308;46.312;25.288;2023-05-22T06:46:26;96070.50;;;16.22;50.21
50394;BME280;36308;46.312;25.288;2023-05-22T06:48:52;96070.28;;;16.37;49.48
50394;BME280;36308;46.312;25.288;2023-05-22T06:51:19;96060.69;;;16.45;49.53
50394;BME280;36308;46.312;25.288;2023-05-22T06:53:45;96057.81;;;16.55;49.56
50394;BME280;36308;46.312;25.288;2023-05-22T06:56:10;96061.53;;;16.78;49.48
50394;BME280;36308;46.312;25.288;2023-05-22T06:58:36;96069.47;;;16.93;49.09
50394;BME280;36308;46.312;25.288;2023-05-22T07:01:03;96069.19;;;17.09;48.60
50394;BME280;36308;46.312;25.288;2023-05-22T07:03:28;96067.53;;;17.27;47.76
50394;BME280;36308;46.312;25.288;2023-05-22T07:05:54;96067.16;;;17.47;46.98
50394;BME280;36308;46.312;25.288;2023-05-22T07:08:22;96069.28;;;17.64;46.32
50394;BME280;36308;46.312;25.288;2023-05-22T07:10:47;96060.28;;;17.77;45.90
50394;BME280;36308;46.312;25.288;2023-05-22T07:13:13;96055.38;;;17.93;45.96
50394;BME280;36308;46.312;25.288;2023-05-22T07:15:38;96063.50;;;18.07;45.35
50394;BME280;36308;46.312;25.288;2023-05-22T07:18:04;96064.28;;;18.22;45.17
50394;BME280;36308;46.312;25.288;2023-05-22T07:20:30;96065.56;;;18.38;44.74
50394;BME280;36308;46.312;25.288;2023-05-22T07:22:56;96058.78;;;18.49;44.29
50394;BME280;36308;46.312;25.288;2023-05-22T07:25:22;96054.09;;;18.64;44.04
50394;BME280;36308;46.312;25.288;2023-05-22T07:27:48;96055.03;;;18.82;44.25
50394;BME280;36308;46.312;25.288;2023-05-22T07:30:13;96047.41;;;18.92;43.96
50394;BME280;36308;46.312;25.288;2023-05-22T07:32:39;96044.19;;;19.13;43.62
50394;BME280;36308;46.312;25.288;2023-05-22T07:35:04;96053.56;;;19.29;43.50
50394;BME280;36308;46.312;25.288;2023-05-22T07:37:31;96048.22;;;19.47;43.67
50394;BME280;36308;46.312;25.288;2023-05-22T07:39:57;96052.28;;;19.67;43.46
50394;BME280;36308;46.312;25.288;2023-05-22T07:42:23;96041.00;;;19.82;43.20
50394;BME280;36308;46.312;25.288;2023-05-22T07:44:50;96043.13;;;20.03;42.57
50394;BME280;36308;46.312;25.288;2023-05-22T07:47:15;96050.53;;;20.19;42.32
50394;BME280;36308;46.312;25.288;2023-05-22T07:49:41;96036.59;;;20.30;42.12
50394;BME280;36308;46.312;25.288;2023-05-22T07:52:07;96043.50;;;20.53;41.84
50394;BME280;36308;46.312;25.288;2023-05-22T07:54:32;96047.06;;;20.71;41.77
50394;BME280;36308;46.312;25.288;2023-05-22T07:56:58;96032.72;;;20.83;40.78
50394;BME280;36308;46.312;25.288;2023-05-22T07:59:27;96045.56;;;21.09;40.05
50394;BME280;36308;46.312;25.288;2023-05-22T08:01:53;96047.13;;;21.27;38.44
50394;BME280;36308;46.312;25.288;2023-05-22T08:04:18;96032.94;;;21.43;37.75
50394;BME280;36308;46.312;25.288;2023-05-22T08:06:44;96023.44;;;21.49;37.39
50394;BME280;36308;46.312;25.288;2023-05-22T08:09:09;96026.44;;;21.65;37.50
50394;BME280;36308;46.312;25.288;2023-05-22T08:11:35;96041.13;;;21.90;37.38
50394;BME280;36308;46.312;25.288;2023-05-22T08:14:02;96043.25;;;22.05;37.70
50394;BME280;36308;46.312;25.288;2023-05-22T08:16:27;96031.28;;;22.18;37.39
50394;BME280;36308;46.312;25.288;2023-05-22T08:18:55;96033.69;;;22.41;36.59
50394;BME280;36308;46.312;25.288;2023-05-22T08:21:20;96023.28;;;22.55;36.69
50394;BME280;36308;46.312;25.288;2023-05-22T08:23:46;96019.25;;;22.74;37.04
50394;BME280;36308;46.312;25.288;2023-05-22T08:26:11;96027.56;;;22.98;37.07
50394;BME280;36308;46.312;25.288;2023-05-22T08:28:37;96024.69;;;23.16;35.91
50394;BME280;36308;46.312;25.288;2023-05-22T08:31:06;96029.28;;;23.36;35.59
50394;BME280;36308;46.312;25.288;2023-05-22T08:33:31;96016.63;;;23.56;35.06
50394;BME280;36308;46.312;25.288;2023-05-22T08:35:57;96028.44;;;23.82;35.16
50394;BME280;36308;46.312;25.288;2023-05-22T08:38:22;96020.47;;;24.01;34.70
50394;BME280;36308;46.312;25.288;2023-05-22T08:40:48;96032.31;;;24.17;33.77
50394;BME280;36308;46.312;25.288;2023-05-22T08:43:14;96019.13;;;24.35;32.99
50394;BME280;36308;46.312;25.288;2023-05-22T08:45:40;96020.81;;;24.52;32.44
50394;BME280;36308;46.312;25.288;2023-05-22T08:48:12;96014.16;;;24.66;31.89
50394;BME280;36308;46.312;25.288;2023-05-22T08:50:41;96004.69;;;24.79;30.87
50394;BME280;36308;46.312;25.288;2023-05-22T08:53:10;96012.19;;;24.94;30.09
50394;BME280;36308;46.312;25.288;2023-05-22T08:55:37;96010.63;;;25.09;30.34
50394;BME280;36308;46.312;25.288;2023-05-22T08:58:04;96026.66;;;25.35;30.81
50394;BME280;36308;46.312;25.288;2023-05-22T09:00:30;96033.44;;;25.54;30.85
50394;BME280;36308;46.312;25.288;2023-05-22T09:02:56;96027.66;;;25.75;30.86
50394;BME280;36308;46.312;25.288;2023-05-22T09:05:21;96024.56;;;25.92;30.24
50394;BME280;36308;46.312;25.288;2023-05-22T09:07:52;96018.31;;;26.11;29.42
50394;BME280;36308;46.312;25.288;2023-05-22T09:10:18;96014.72;;;26.27;29.75
50394;BME280;36308;46.312;25.288;2023-05-22T09:13:03;96019.75;;;26.40;29.64
50394;BME280;36308;46.312;25.288;2023-05-22T09:15:30;96004.31;;;26.55;28.50
50394;BME280;36308;46.312;25.288;2023-05-22T09:17:57;96014.88;;;26.69;28.45
50394;BME280;36308;46.312;25.288;2023-05-22T09:20:23;96014.34;;;26.83;27.42
50394;BME280;36308;46.312;25.288;2023-05-22T09:22:48;96012.25;;;26.96;27.43
50394;BME280;36308;46.312;25.288;2023-05-22T09:25:18;96010.25;;;27.16;27.21
50394;BME280;36308;46.312;25.288;2023-05-22T09:27:47;96014.59;;;27.36;26.90
50394;BME280;36308;46.312;25.288;2023-05-22T09:30:16;96018.13;;;27.56;27.05
50394;BME280;36308;46.312;25.288;2023-05-22T09:32:43;96012.88;;;27.74;27.22
50394;BME280;36308;46.312;25.288;2023-05-22T09:35:08;96020.31;;;27.93;26.82
50394;BME280;36308;46.312;25.288;2023-05-22T09:37:35;96010.28;;;28.08;27.14
50394;BME280;36308;46.312;25.288;2023-05-22T09:40:05;96011.97;;;28.16;26.32
50394;BME280;36308;46.312;25.288;2023-05-22T09:42:34;95989.81;;;28.13;26.98
50394;BME280;36308;46.312;25.288;2023-05-22T09:45:06;96012.22;;;28.34;27.58
50394;BME280;36308;46.312;25.288;2023-05-22T09:47:33;95996.13;;;28.40;26.95
50394;BME280;36308;46.312;25.288;2023-05-22T09:50:01;96006.97;;;28.52;26.76
50394;BME280;36308;46.312;25.288;2023-05-22T09:52:32;96006.09;;;28.48;26.07
50394;BME280;36308;46.312;25.288;2023-05-22T09:55:04;96003.25;;;28.41;25.60
50394;BME280;36308;46.312;25.288;2023-05-22T09:57:32;96005.91;;;28.34;25.45
50394;BME280;36308;46.312;25.288;2023-05-22T10:00:02;95998.59;;;28.18;25.28
50394;BME280;36308;46.312;25.288;2023-05-22T10:02:35;96001.66;;;28.13;25.50
50394;BME280;36308;46.312;25.288;2023-05-22T10:05:05;95993.59;;;28.01;25.39
50394;BME280;36308;46.312;25.288;2023-05-22T10:07:42;95992.63;;;27.90;25.66
50394;BME280;36308;46.312;25.288;2023-05-22T10:10:11;95998.34;;;27.77;25.62
50394;BME280;36308;46.312;25.288;2023-05-22T10:13:03;95999.06;;;27.74;26.15
50394;BME280;36308;46.312;25.288;2023-05-22T10:15:30;95973.31;;;27.67;26.78
50394;BME280;36308;46.312;25.288;2023-05-22T10:17:57;96002.38;;;27.84;26.18
50394;BME280;36308;46.312;25.288;2023-05-22T10:20:25;95985.81;;;27.84;26.26
50394;BME280;36308;46.312;25.288;2023-05-22T10:22:54;95978.41;;;27.88;26.36
50394;BME280;36308;46.312;25.288;2023-05-22T10:25:20;95988.91;;;28.05;26.53
50394;BME280;36308;46.312;25.288;2023-05-22T10:27:47;95995.34;;;28.13;25.87
50394;BME280;36308;46.312;25.288;2023-05-22T10:33:04;95992.22;;;28.14;25.21
50394;BME280;36308;46.312;25.288;2023-05-22T10:35:56;95983.50;;;28.12;25.44
50394;BME280;36308;46.312;25.288;2023-05-22T10:41:22;95976.94;;;28.24;25.21
50394;BME280;36308;46.312;25.288;2023-05-22T10:43:49;95966.34;;;28.30;25.66
50394;BME280;36308;46.312;25.288;2023-05-22T10:46:15;95967.38;;;28.48;25.18
50394;BME280;36308;46.312;25.288;2023-05-22T10:48:45;95970.72;;;28.61;25.25
50394;BME280;36308;46.312;25.288;2023-05-22T10:51:20;95970.13;;;28.75;24.65
50394;BME280;36308;46.312;25.288;2023-05-22T10:53:50;95963.91;;;28.85;24.27
50394;BME280;36308;46.312;25.288;2023-05-22T10:56:19;95965.59;;;28.97;24.42
50394;BME280;36308;46.312;25.288;2023-05-22T10:58:55;95961.78;;;29.09;24.01
50394;BME280;36308;46.312;25.288;2023-05-22T11:01:24;95963.88;;;29.19;23.28
50394;BME280;36308;46.312;25.288;2023-05-22T11:04:00;95962.72;;;29.24;22.83
50394;BME280;36308;46.312;25.288;2023-05-22T11:09:40;95947.81;;;29.35;23.37
50394;BME280;36308;46.312;25.288;2023-05-22T11:12:24;95946.34;;;29.49;23.21
50394;BME280;36308;46.312;25.288;2023-05-22T11:15:08;95949.53;;;29.51;23.30
50394;BME280;36308;46.312;25.288;2023-05-22T11:17:42;95935.28;;;29.52;23.03
50394;BME280;36308;46.312;25.288;2023-05-22T11:20:20;95944.09;;;29.65;23.53
50394;BME280;36308;46.312;25.288;2023-05-22T11:22:55;95950.84;;;29.64;23.08
50394;BME280;36308;46.312;25.288;2023-05-22T11:25:21;95938.47;;;29.54;23.23
50394;BME280;36308;46.312;25.288;2023-05-22T11:27:48;95944.03;;;29.54;23.19
50394;BME280;36308;46.312;25.288;2023-05-22T11:30:14;95944.03;;;29.54;22.84
50394;BME280;36308;46.312;25.288;2023-05-22T11:32:42;95940.47;;;29.54;22.88
50394;BME280;36308;46.312;25.288;2023-05-22T11:35:20;95949.53;;;29.51;23.00
50394;BME280;36308;46.312;25.288;2023-05-22T11:37:47;95943.94;;;29.44;22.80
50394;BME280;36308;46.312;25.288;2023-05-22T11:40:23;95944.69;;;29.37;22.56
50394;BME280;36308;46.312;25.288;2023-05-22T11:42:51;95933.50;;;29.26;22.58
50394;BME280;36308;46.312;25.288;2023-05-22T11:45:16;95930.34;;;29.24;23.35
50394;BME280;36308;46.312;25.288;2023-05-22T11:47:42;95920.00;;;29.21;23.27
50394;BME280;36308;46.312;25.288;2023-05-22T11:50:09;95930.00;;;29.36;23.34
50394;BME280;36308;46.312;25.288;2023-05-22T11:52:36;95923.34;;;29.45;23.54
50394;BME280;36308;46.312;25.288;2023-05-22T11:55:06;95921.84;;;29.54;23.80
50394;BME280;36308;46.312;25.288;2023-05-22T11:57:33;95927.47;;;29.65;23.83
50394;BME280;36308;46.312;25.288;2023-05-22T12:00:05;95918.06;;;29.73;23.40
50394;BME280;36308;46.312;25.288;2023-05-22T12:02:32;95928.78;;;29.75;23.03
50394;BME280;36308;46.312;25.288;2023-05-22T12:04:58;95910.44;;;29.59;22.75
50394;BME280;36308;46.312;25.288;2023-05-22T12:07:24;95919.13;;;29.58;22.88
50394;BME280;36308;46.312;25.288;2023-05-22T12:09:52;95913.94;;;29.53;23.38
50394;BME280;36308;46.312;25.288;2023-05-22T12:12:19;95905.16;;;29.44;23.08
50394;BME280;36308;46.312;25.288;2023-05-22T12:14:45;95915.16;;;29.59;22.94
50394;BME280;36308;46.312;25.288;2023-05-22T12:17:15;95906.09;;;29.62;22.57
50394;BME280;36308;46.312;25.288;2023-05-22T12:19:42;95908.50;;;29.67;22.57
50394;BME280;36308;46.312;25.288;2023-05-22T12:22:10;95906.13;;;29.69;22.24
50394;BME280;36308;46.312;25.288;2023-05-22T12:24:39;95902.13;;;29.63;21.55
50394;BME280;36308;46.312;25.288;2023-05-22T12:27:09;95904.53;;;29.65;22.52
50394;BME280;36308;46.312;25.288;2023-05-22T12:29:36;95903.81;;;29.71;22.59
50394;BME280;36308;46.312;25.288;2023-05-22T12:32:03;95898.31;;;29.82;22.47
50394;BME280;36308;46.312;25.288;2023-05-22T12:34:42;95888.16;;;29.97;22.80
50394;BME280;36308;46.312;25.288;2023-05-22T12:37:21;95896.13;;;30.13;22.59
50394;BME280;36308;46.312;25.288;2023-05-22T12:39:53;95885.06;;;30.16;23.06
50394;BME280;36308;46.312;25.288;2023-05-22T12:42:20;95881.94;;;30.25;22.54
50394;BME280;36308;46.312;25.288;2023-05-22T12:44:46;95886.31;;;30.30;22.71
50394;BME280;36308;46.312;25.288;2023-05-22T12:47:11;95881.22;;;30.35;23.09
50394;BME280;36308;46.312;25.288;2023-05-22T12:49:37;95877.25;;;30.40;22.81
50394;BME280;36308;46.312;25.288;2023-05-22T12:52:02;95881.25;;;30.46;22.40
50394;BME280;36308;46.312;25.288;2023-05-22T12:54:28;95884.84;;;30.47;22.71
50394;BME280;36308;46.312;25.288;2023-05-22T12:56:53;95876.84;;;30.38;22.34
50394;BME280;36308;46.312;25.288;2023-05-22T12:59:19;95873.63;;;30.29;21.87
50394;BME280;36308;46.312;25.288;2023-05-22T13:01:45;95873.19;;;30.19;21.74
50394;BME280;36308;46.312;25.288;2023-05-22T13:04:10;95873.16;;;30.12;22.14
50394;BME280;36308;46.312;25.288;2023-05-22T13:06:36;95875.91;;;30.05;22.20
50394;BME280;36308;46.312;25.288;2023-05-22T13:09:01;95870.72;;;30.00;22.11
50394;BME280;36308;46.312;25.288;2023-05-22T13:11:27;95873.88;;;29.95;21.87
50394;BME280;36308;46.312;25.288;2023-05-22T13:13:52;95866.72;;;29.87;21.58